KEEN/EEN METAR and TAF weather

Enter ICAO airport designator
Station Type Date Time Source
KEEN METAR 2020/09/24 10:36 UTC NOAA

KEEN 241036Z AUTO 00000KT 2SM BR BKN001 06/06 A2994 RMK AO2 RAB05E28 PNO $


Station Type Date Time Source
KEEN Decoded METAR 2020/09/24 10:36 UTC NOAA

Keene, Dillant-Hopkins Airport, NH, United States (KEEN) 42-54N 072-16W
Sep 24, 2020 - 06:36 AM EDT / 2020.09.24 1036 UTC
Wind: Calm:0
Visibility: 2 mile(s):0
Sky conditions: mostly cloudy
Weather: mist
Temperature: 42 F (6 C)
Dew Point: 42 F (6 C)
Relative Humidity: 100%
Pressure (altimeter): 29.94 in. Hg (1013 hPa)
ob: KEEN 241036Z AUTO 00000KT 2SM BR BKN001 06/06 A2994 RMK AO2 RAB05E28 PNO
cycle: 10

Station Type Date Time Source
KEEN TAF UTC NOAA

Error!

Example: see airport list